Hauptseite
Satellitenwetter 10-Tage PrognosenKlimaSeewetter Wirbelstürme Blitz FlughäfenFAQ Newsletter Über uns
Wetter : Europa Afrika Nordamerika Südamerika Asien Australien-Ozeanien Andere
Sprachen Kontakt

Innsbruck, Österreich

Flughafen Innsbruck

Breite: 47-16N, Länge: 011-21E, Höhe: 581 m


METAR: LOWI 191350Z 08007KT 050V120 CAVOK 16/M03 Q1016 NOSIG
TAF: LOWI 191115Z 1912/2012 07008KT CAVOK TX15/2012Z TN00/2004Z BECMG 1916/1918 VRB02KT

Zeit: 16:06 (14:06 UTC)

Beobachtung

Neuester Wetterbericht von vor 16 Minuten, um 13:50 UTC
Wind 7 kt aus Ost, variierte zwischen Nordost und Ost/Südost
Temperatur 16°C
Luftfeuchtigkeit 27%
Luftdruck 1016 hPa
Sichtweite 10 km oder mehr
keine Wolken unter 1500 m und keine Kumulonimbus oder Gewitterwolken

Maßeinheiten ändern

Prognose

Neuester Wetterbericht von vor 2 Stunden und 51 Minuten, um 11:15 UTC
Gültige Prognose vom 19 um 12 UTC bis 20 um 12 UTC
Wind 8 kt aus Ost/Nordost
Sichtweite 10 km oder mehr
keine Wolken unter 1500 m und keine Kumulonimbus oder Gewitterwolken
Übergehend zu
vom 19 um 16 UTC bis 19 um 18 UTC
Wind 2 kt aus unterschiedlichen Richtungen
Die Angaben auf diesen Webseiten unterliegen einer Erklärung über den Haftungsausschluss
Wetter : Europa Afrika Nordamerika Südamerika Asien Australien-Ozeanien Andere
Satellitenwetter 10-Tage PrognosenKlimaSeewetter Wirbelstürme Blitz FlughäfenFAQ Sprachen Kontakt Newsletter Über uns